Russell, Pennsylvania
Current Conditions -  °F | °C
As of 2:35 AM on Thursday 18 Dec 2014 (Local Time) from KJHW Reporting Station
Overcast Overcast  
Wind Chill: 17°   Ceiling: 2500
Heat Index: 27°   Visibility: 10mi
Dew Point: 19°   Wind: 10mph
Humidity: 74%   Direction: 270°W
Pressure: 30.03"   Gusts: NA
Location:  41.94°N, 79.13°W
Report Text: KJHW 180735Z 27009KT 10SM SCT016 OVC025 M03/M07 A3003 RMK AO1
Loading
Personal Weather Stations






























Interactive Weather Map New forecast layout! Learn more

10-Day Weather Forecast

Advertisements
Track Severe Weather on mobile